createdAt,value
2016-05-01T00:00:10.103Z,0
2016-05-01T00:01:03.762Z,0
2016-05-01T00:01:50.890Z,0
2016-05-01T00:03:10.283Z,0
2016-05-01T00:03:57.348Z,0
2016-05-01T00:05:11.116Z,0
2016-05-01T00:05:51.120Z,0
2016-05-01T00:06:51.873Z,0
2016-05-01T00:07:51.233Z,0
2016-05-01T00:09:03.753Z,0
2016-05-01T00:10:03.989Z,0
2016-05-01T00:11:10.399Z,0
2016-05-01T00:11:51.261Z,0
2016-05-01T00:12:50.904Z,0
2016-05-01T00:13:52.516Z,0
2016-05-01T00:15:03.816Z,0
2016-05-01T00:15:51.209Z,0
2016-05-01T00:16:51.102Z,0
2016-05-01T00:17:51.261Z,0
2016-05-01T00:19:04.138Z,0
2016-05-01T00:19:52.282Z,0
2016-05-01T00:21:10.379Z,0
2016-05-01T00:21:51.365Z,0
2016-05-01T00:23:17.009Z,0
2016-05-01T00:23:52.026Z,0
2016-05-01T00:25:22.673Z,0
2016-05-01T00:26:04.142Z,0
2016-05-01T00:26:51.489Z,0
2016-05-01T00:29:00.947Z,0
2016-05-01T00:30:00.934Z,0
2016-05-01T00:31:02.562Z,0
2016-05-01T00:32:07.987Z,0
2016-05-01T00:33:13.567Z,0
2016-05-01T00:34:01.008Z,0
2016-05-01T00:35:21.919Z,0
2016-05-01T00:36:01.013Z,0
2016-05-01T00:37:26.846Z,0
2016-05-01T00:38:01.799Z,0
2016-05-01T00:39:58.008Z,0
2016-05-01T00:40:10.508Z,0
2016-05-01T00:41:36.216Z,0
2016-05-01T00:42:10.716Z,0
2016-05-01T00:44:07.675Z,0
2016-05-01T00:44:20.003Z,0
2016-05-01T00:45:20.068Z,0
2016-05-01T00:46:33.073Z,0
2016-05-01T00:47:20.448Z,0
2016-05-01T00:48:39.579Z,0
2016-05-01T00:49:32.909Z,0
2016-05-01T00:50:21.756Z,0
2016-05-01T00:51:20.115Z,0
2016-05-01T00:52:21.090Z,0
2016-05-01T00:53:20.449Z,0
2016-05-01T00:54:27.345Z,0
2016-05-01T00:55:20.329Z,0
2016-05-01T00:56:46.179Z,0
2016-05-01T00:57:21.070Z,0
2016-05-01T00:58:51.825Z,0
2016-05-01T00:59:20.528Z,0
2016-05-01T01:00:20.218Z,0
2016-05-01T01:01:33.176Z,0
2016-05-01T01:02:21.020Z,0
2016-05-01T01:03:20.289Z,0
2016-05-01T01:04:20.619Z,0
2016-05-01T01:05:22.343Z,0
2016-05-01T01:06:21.264Z,0
2016-05-01T01:07:20.627Z,0
2016-05-01T01:08:33.398Z,0
2016-05-01T01:09:20.727Z,0
2016-05-01T01:10:20.916Z,0
2016-05-01T01:11:20.700Z,0
2016-05-01T01:12:20.719Z,0
2016-05-01T01:13:20.627Z,0
2016-05-01T01:14:20.612Z,0
2016-05-01T01:15:26.851Z,0
2016-05-01T01:16:20.773Z,0
2016-05-01T01:17:20.572Z,0
2016-05-01T01:18:27.093Z,0
2016-05-01T01:19:20.703Z,0
2016-05-01T01:20:33.317Z,0
2016-05-01T01:21:33.586Z,0
2016-05-01T01:22:33.792Z,0
2016-05-01T01:23:46.403Z,0
2016-05-01T01:24:20.653Z,0
2016-05-01T01:25:52.174Z,0
2016-05-01T01:26:33.646Z,0
2016-05-01T01:27:20.943Z,0
2016-05-01T01:28:40.119Z,0
2016-05-01T01:29:20.963Z,0
2016-05-01T01:30:20.983Z,0
2016-05-01T01:31:21.000Z,0
2016-05-01T01:32:27.255Z,0
2016-05-01T01:33:27.274Z,0
2016-05-01T01:34:27.277Z,0
2016-05-01T01:36:11.389Z,0
2016-05-01T01:36:23.877Z,0
2016-05-01T01:38:30.226Z,0
2016-05-01T01:39:27.243Z,0
2016-05-01T01:40:27.074Z,0
2016-05-01T01:41:39.859Z,0
2016-05-01T01:42:27.267Z,0
2016-05-01T01:43:46.317Z,0
2016-05-01T01:44:27.287Z,0
2016-05-01T01:45:52.853Z,0
2016-05-01T01:46:28.731Z,0
2016-05-01T01:47:27.343Z,0
2016-05-01T01:48:40.158Z,0
2016-05-01T01:49:27.364Z,0
2016-05-01T01:50:27.883Z,0
2016-05-01T01:51:40.119Z,0
2016-05-01T01:52:39.997Z,0
2016-05-01T01:53:40.186Z,0
2016-05-01T01:54:46.628Z,0
2016-05-01T01:55:52.818Z,0
2016-05-01T01:56:53.117Z,0
2016-05-01T01:57:27.307Z,0
2016-05-01T01:59:25.063Z,0
2016-05-01T01:59:37.407Z,0
2016-05-01T02:00:56.785Z,0
2016-05-01T02:01:50.490Z,0
2016-05-01T02:02:37.899Z,0
2016-05-01T02:03:37.605Z,0
2016-05-01T02:04:38.404Z,0
2016-05-01T02:05:37.485Z,0
2016-05-01T02:06:39.206Z,0
2016-05-01T02:07:44.146Z,0
2016-05-01T02:08:39.243Z,0
2016-05-01T02:09:37.871Z,0
2016-05-01T02:10:37.904Z,0
2016-05-01T02:11:37.893Z,0
2016-05-01T02:12:43.987Z,0
2016-05-01T02:13:37.756Z,0
2016-05-01T02:14:37.791Z,0
2016-05-01T02:15:37.934Z,0
2016-05-01T02:16:37.765Z,0
2016-05-01T02:17:38.424Z,0
2016-05-01T02:18:37.801Z,0
2016-05-01T02:19:38.054Z,0
2016-05-01T02:20:38.198Z,0
2016-05-01T02:21:44.106Z,0
2016-05-01T02:22:38.078Z,0
2016-05-01T02:23:44.393Z,0
2016-05-01T02:24:44.380Z,0
2016-05-01T02:25:37.930Z,0
2016-05-01T02:26:57.291Z,0
2016-05-01T02:27:44.372Z,0
2016-05-01T02:28:37.766Z,0
2016-05-01T02:29:50.830Z,0
2016-05-01T02:30:44.396Z,0
2016-05-01T02:31:37.868Z,0
2016-05-01T02:32:37.980Z,0
2016-05-01T02:33:38.482Z,0
2016-05-01T02:34:38.266Z,0
2016-05-01T02:35:39.066Z,0
2016-05-01T02:36:39.677Z,0
2016-05-01T02:37:39.665Z,0
2016-05-01T02:38:38.090Z,0
2016-05-01T02:39:38.249Z,0
2016-05-01T02:40:38.204Z,0
2016-05-01T02:41:38.285Z,0
2016-05-01T02:42:38.241Z,0
2016-05-01T02:43:44.571Z,0
2016-05-01T02:44:38.137Z,0
2016-05-01T02:45:51.123Z,0
2016-05-01T02:46:38.329Z,0
2016-05-01T02:47:57.426Z,0
2016-05-01T02:48:39.756Z,0
2016-05-01T02:50:04.259Z,0
2016-05-01T02:50:37.965Z,0
2016-05-01T02:52:03.765Z,0
2016-05-01T02:52:38.440Z,0
2016-05-01T02:53:38.442Z,0
2016-05-01T02:54:38.445Z,0
2016-05-01T02:55:39.885Z,0
2016-05-01T02:56:38.482Z,0
2016-05-01T02:57:51.094Z,0
2016-05-01T02:58:51.206Z,0
2016-05-01T02:59:38.505Z,0
2016-05-01T03:00:57.586Z,0
2016-05-01T03:01:39.949Z,0
2016-05-01T03:02:38.544Z,0
2016-05-01T03:03:38.579Z,0
2016-05-01T03:04:38.581Z,0
2016-05-01T03:05:38.302Z,0
2016-05-01T03:06:38.665Z,0
2016-05-01T03:07:38.604Z,0
2016-05-01T03:08:38.295Z,0
2016-05-01T03:09:51.235Z,0
2016-05-01T03:10:38.613Z,0
2016-05-01T03:11:57.882Z,0
2016-05-01T03:12:51.244Z,0
2016-05-01T03:13:38.386Z,0
2016-05-01T03:14:51.452Z,0
2016-05-01T03:15:38.720Z,0
2016-05-01T03:16:38.739Z,0
2016-05-01T03:17:38.757Z,0
2016-05-01T03:18:39.369Z,0
2016-05-01T03:19:39.403Z,0
2016-05-01T03:20:45.546Z,0
2016-05-01T03:21:51.502Z,0
2016-05-01T03:22:57.880Z,0
2016-05-01T03:23:51.601Z,0
2016-05-01T03:25:09.963Z,0
2016-05-01T03:25:57.747Z,0
2016-05-01T03:26:38.562Z,0
2016-05-01T03:28:04.581Z,0
2016-05-01T03:28:45.177Z,0
2016-05-01T03:29:38.914Z,0
2016-05-01T03:30:58.136Z,0
2016-05-01T03:31:51.670Z,0
2016-05-01T03:32:38.953Z,0
2016-05-01T03:34:48.569Z,0
2016-05-01T03:35:49.430Z,0
2016-05-01T03:36:48.605Z,0
2016-05-01T03:37:48.483Z,0
2016-05-01T03:38:48.641Z,0
2016-05-01T03:39:48.644Z,0
2016-05-01T03:40:48.554Z,0
2016-05-01T03:41:48.681Z,5
2016-05-01T03:43:01.449Z,5
2016-05-01T03:43:48.687Z,5
2016-05-01T03:44:48.704Z,5
2016-05-01T03:45:48.738Z,5
2016-05-01T03:46:50.163Z,5
2016-05-01T03:47:48.743Z,5
2016-05-01T03:48:49.528Z,5
2016-05-01T03:49:48.639Z,10
2016-05-01T03:50:49.517Z,10
2016-05-01T03:51:48.739Z,10
2016-05-01T03:52:48.679Z,10
2016-05-01T03:53:55.760Z,10
2016-05-01T03:54:48.701Z,10
2016-05-01T03:55:52.015Z,15
2016-05-01T03:56:48.690Z,15
2016-05-01T03:57:55.756Z,15
2016-05-01T03:58:49.492Z,15
2016-05-01T03:59:48.730Z,15
2016-05-01T04:00:48.919Z,20
2016-05-01T04:01:49.125Z,20
2016-05-01T04:02:48.800Z,20
2016-05-01T04:03:48.802Z,20
2016-05-01T04:05:03.368Z,25
2016-05-01T04:05:50.916Z,25
2016-05-01T04:07:20.310Z,25
2016-05-01T04:08:01.766Z,30
2016-05-01T04:09:58.552Z,30
2016-05-01T04:11:17.602Z,30
2016-05-01T04:12:04.558Z,35
2016-05-01T04:14:02.283Z,35
2016-05-01T04:14:27.801Z,35
2016-05-01T04:15:14.957Z,35
2016-05-01T04:16:40.493Z,40
2016-05-01T04:17:27.574Z,40
2016-05-01T04:18:14.996Z,40
2016-05-01T04:19:27.439Z,40
2016-05-01T04:20:27.895Z,45
2016-05-01T04:21:34.117Z,45
2016-05-01T04:22:14.789Z,45
2016-05-01T04:23:34.856Z,50
2016-05-01T04:24:27.749Z,50
2016-05-01T04:25:34.314Z,55
2016-05-01T04:26:34.317Z,60
2016-05-01T04:27:40.914Z,60
2016-05-01T04:28:40.792Z,65
2016-05-01T04:30:11.998Z,65
2016-05-01T04:30:43.688Z,65
2016-05-01T04:31:50.362Z,70
2016-05-01T04:33:27.272Z,70
2016-05-01T04:33:58.992Z,70
2016-05-01T04:34:59.292Z,70
2016-05-01T04:36:36.922Z,70
2016-05-01T04:37:02.250Z,70
2016-05-01T04:38:46.599Z,75
2016-05-01T04:39:49.602Z,75
2016-05-01T04:40:21.274Z,80
2016-05-01T04:41:02.277Z,80
2016-05-01T04:42:59.266Z,80
2016-05-01T04:43:37.457Z,85
2016-05-01T04:44:11.801Z,85
2016-05-01T04:45:37.681Z,85
2016-05-01T04:46:13.228Z,90
2016-05-01T04:47:13.262Z,90
2016-05-01T04:48:11.843Z,95
2016-05-01T04:49:31.130Z,95
2016-05-01T04:50:12.036Z,100
2016-05-01T04:52:21.510Z,90
2016-05-01T04:53:21.668Z,85
2016-05-01T04:54:27.968Z,85
2016-05-01T04:55:21.674Z,90
2016-05-01T04:56:29.398Z,95
2016-05-01T04:57:34.306Z,95
2016-05-01T04:58:47.434Z,100
2016-05-01T04:59:40.797Z,105
2016-05-01T05:00:52.908Z,105
2016-05-01T05:01:47.161Z,110
2016-05-01T05:02:28.161Z,110
2016-05-01T05:04:43.186Z,125
2016-05-01T05:05:49.453Z,125
2016-05-01T05:06:49.394Z,125
2016-05-01T05:07:56.069Z,125
2016-05-01T05:08:49.525Z,130
2016-05-01T05:10:02.652Z,135
2016-05-01T05:10:49.733Z,135
2016-05-01T05:12:08.126Z,150
2016-05-01T05:12:49.769Z,155
2016-05-01T05:13:37.038Z,160
2016-05-01T05:14:37.071Z,165
2016-05-01T05:15:36.902Z,170
2016-05-01T05:16:49.530Z,175
2016-05-01T05:17:49.829Z,185
2016-05-01T05:18:49.832Z,190
2016-05-01T05:20:35.447Z,185
2016-05-01T05:21:07.353Z,180
2016-05-01T05:21:47.731Z,175
2016-05-01T05:23:58.034Z,175
2016-05-01T05:25:16.990Z,170
2016-05-01T05:25:58.616Z,170
2016-05-01T05:27:23.620Z,165
2016-05-01T05:28:10.592Z,160
2016-05-01T05:30:13.253Z,145
2016-05-01T05:32:48.558Z,140
2016-05-01T05:33:35.638Z,140
2016-05-01T05:35:19.703Z,135
2016-05-01T05:35:33.284Z,130
2016-05-01T05:37:41.884Z,130
2016-05-01T05:39:01.089Z,130
2016-05-01T05:39:41.826Z,130
2016-05-01T05:41:44.488Z,140
2016-05-01T05:42:16.347Z,140
2016-05-01T05:42:57.006Z,145
2016-05-01T05:44:22.510Z,155
2016-05-01T05:44:57.168Z,155
2016-05-01T05:46:47.705Z,160
2016-05-01T05:47:13.111Z,160
2016-05-01T05:48:13.082Z,160
2016-05-01T05:50:29.432Z,150
2016-05-01T05:51:35.968Z,155
2016-05-01T05:52:10.015Z,160
2016-05-01T05:54:12.770Z,160
2016-05-01T05:54:51.195Z,155
2016-05-01T05:55:25.398Z,155
2016-05-01T05:57:15.950Z,145
2016-05-01T05:57:41.203Z,140
2016-05-01T05:58:59.767Z,140
2016-05-01T06:00:18.973Z,145
2016-05-01T06:01:28.586Z,135
2016-05-01T06:01:41.510Z,135
2016-05-01T06:02:41.200Z,135
2016-05-01T06:03:41.469Z,130
2016-05-01T06:04:41.503Z,130
2016-05-01T06:05:41.522Z,130
2016-05-01T06:06:42.164Z,130
2016-05-01T06:07:47.760Z,130
2016-05-01T06:08:41.530Z,130
2016-05-01T06:09:41.595Z,135
2016-05-01T06:10:41.529Z,135
2016-05-01T06:11:41.537Z,140
2016-05-01T06:12:42.028Z,150
2016-05-01T06:13:41.606Z,145
2016-05-01T06:14:41.328Z,150
2016-05-01T06:15:41.424Z,155
2016-05-01T06:16:54.411Z,165
2016-05-01T06:17:41.522Z,165
2016-05-01T06:18:41.525Z,165
2016-05-01T06:19:41.763Z,165
2016-05-01T06:20:42.797Z,175
2016-05-01T06:21:41.580Z,180
2016-05-01T06:22:41.536Z,185
2016-05-01T06:23:41.149Z,180
2016-05-01T06:24:41.683Z,180
2016-05-01T06:25:41.654Z,185
2016-05-01T06:26:41.719Z,185
2016-05-01T06:27:41.690Z,190
2016-05-01T06:28:41.709Z,195
2016-05-01T06:29:41.712Z,200
2016-05-01T06:30:41.542Z,205
2016-05-01T06:31:41.749Z,215
2016-05-01T06:32:41.454Z,220
2016-05-01T06:33:41.628Z,220
2016-05-01T06:34:41.632Z,220
2016-05-01T06:35:42.134Z,220
2016-05-01T06:36:41.653Z,230
2016-05-01T06:37:41.906Z,240
2016-05-01T06:38:41.861Z,245
2016-05-01T06:39:41.942Z,255
2016-05-01T06:40:41.882Z,270
2016-05-01T06:41:41.760Z,285
2016-05-01T06:42:54.512Z,305
2016-05-01T06:43:41.812Z,390
2016-05-01T06:44:41.955Z,500
2016-05-01T06:45:41.989Z,350
2016-05-01T06:46:42.039Z,355
2016-05-01T06:47:42.010Z,390
2016-05-01T06:48:45.231Z,345
2016-05-01T06:49:42.141Z,350
2016-05-01T06:50:41.969Z,370
2016-05-01T06:51:41.997Z,390
2016-05-01T06:52:43.496Z,415
2016-05-01T06:53:41.994Z,425
2016-05-01T06:54:42.383Z,520
2016-05-01T06:55:42.411Z,460
2016-05-01T06:56:42.460Z,440
2016-05-01T06:57:42.322Z,440
2016-05-01T06:58:42.184Z,440
2016-05-01T06:59:42.500Z,440
2016-05-01T07:00:48.791Z,435
2016-05-01T07:01:42.565Z,435
2016-05-01T07:02:42.604Z,525
2016-05-01T07:03:42.628Z,425
2016-05-01T07:04:42.324Z,420
2016-05-01T07:05:42.689Z,400
2016-05-01T07:06:42.678Z,380
2016-05-01T07:07:42.823Z,370
2016-05-01T07:08:42.391Z,365
2016-05-01T07:09:44.004Z,365
2016-05-01T07:10:55.525Z,365
2016-05-01T07:11:42.808Z,365
2016-05-01T07:12:42.797Z,360
2016-05-01T07:13:42.815Z,360
2016-05-01T07:14:42.928Z,355
2016-05-01T07:15:42.900Z,350
2016-05-01T07:16:42.904Z,350
2016-05-01T07:17:42.734Z,350
2016-05-01T07:18:43.004Z,350
2016-05-01T07:19:42.787Z,355
2016-05-01T07:20:43.041Z,360
2016-05-01T07:21:42.981Z,370
2016-05-01T07:22:43.046Z,395
2016-05-01T07:23:43.018Z,460
2016-05-01T07:24:42.895Z,740
2016-05-01T07:25:42.867Z,410
2016-05-01T07:26:43.697Z,420
2016-05-01T07:27:43.184Z,395
2016-05-01T07:28:42.796Z,395
2016-05-01T07:29:42.971Z,395
2016-05-01T07:30:43.145Z,400
2016-05-01T07:31:43.164Z,420
2016-05-01T07:32:43.057Z,410
2016-05-01T07:33:43.576Z,410
2016-05-01T07:34:43.453Z,420
2016-05-01T07:35:43.159Z,420
2016-05-01T07:36:43.286Z,430
2016-05-01T07:37:43.165Z,445
2016-05-01T07:38:42.652Z,435
2016-05-01T07:39:43.294Z,435
2016-05-01T07:40:43.688Z,425
2016-05-01T07:41:43.519Z,430
2016-05-01T07:42:46.694Z,430
2016-05-01T07:43:43.227Z,420
2016-05-01T07:44:43.293Z,415
2016-05-01T07:45:43.608Z,410
2016-05-01T07:46:43.892Z,410
2016-05-01T07:47:43.582Z,415
2016-05-01T07:48:43.679Z,420
2016-05-01T07:49:43.368Z,425
2016-05-01T07:50:45.121Z,430
2016-05-01T07:51:43.577Z,440
2016-05-01T07:52:43.579Z,450
2016-05-01T07:53:43.582Z,445
2016-05-01T07:54:43.616Z,445
2016-05-01T07:55:43.651Z,450
2016-05-01T07:56:43.637Z,445
2016-05-01T07:57:43.796Z,440
2016-05-01T07:58:43.612Z,435
2016-05-01T07:59:44.099Z,430
2016-05-01T08:00:43.757Z,430
2016-05-01T08:01:43.807Z,425
2016-05-01T08:02:43.762Z,425
2016-05-01T08:03:43.812Z,420
2016-05-01T08:04:43.767Z,415
2016-05-01T08:05:43.818Z,415
2016-05-01T08:06:43.695Z,410
2016-05-01T08:07:43.807Z,410
2016-05-01T08:08:43.873Z,410
2016-05-01T08:09:43.907Z,415
2016-05-01T08:10:43.956Z,415
2016-05-01T08:11:43.741Z,415
2016-05-01T08:12:44.055Z,410
2016-05-01T08:13:43.980Z,410
2016-05-01T08:14:43.998Z,415
2016-05-01T08:15:44.016Z,420
2016-05-01T08:16:44.035Z,425
2016-05-01T08:17:43.913Z,435
2016-05-01T08:18:43.915Z,445
2016-05-01T08:19:43.793Z,450
2016-05-01T08:20:44.124Z,460
2016-05-01T08:21:44.018Z,465
2016-05-01T08:22:44.146Z,470
2016-05-01T08:23:44.148Z,475
2016-05-01T08:24:44.181Z,475
2016-05-01T08:25:44.137Z,480
2016-05-01T08:26:56.968Z,485
2016-05-01T08:27:44.095Z,485
2016-05-01T08:28:44.271Z,490
2016-05-01T08:29:44.149Z,495
2016-05-01T08:30:44.182Z,505
2016-05-01T08:31:43.997Z,510
2016-05-01T08:32:43.891Z,510
2016-05-01T08:33:44.206Z,495
2016-05-01T08:34:44.584Z,490
2016-05-01T08:35:44.915Z,490
2016-05-01T08:36:44.401Z,495
2016-05-01T08:37:44.420Z,505
2016-05-01T08:38:44.470Z,510
2016-05-01T08:39:44.534Z,525
2016-05-01T08:40:44.521Z,530
2016-05-01T08:41:44.728Z,535
2016-05-01T08:42:44.402Z,535
2016-05-01T08:43:44.576Z,545
2016-05-01T08:44:52.125Z,555
2016-05-01T08:45:50.972Z,560
2016-05-01T08:47:35.335Z,565
2016-05-01T08:48:00.588Z,570
2016-05-01T08:49:07.152Z,570
2016-05-01T08:49:47.905Z,565
2016-05-01T08:52:23.098Z,550
2016-05-01T08:52:57.444Z,545
2016-05-01T08:53:57.368Z,545
2016-05-01T08:54:57.388Z,545
2016-05-01T08:55:57.515Z,550
2016-05-01T08:56:57.548Z,555
2016-05-01T08:57:57.583Z,550
2016-05-01T08:58:57.726Z,550
2016-05-01T09:00:10.370Z,540
2016-05-01T09:01:10.232Z,540
2016-05-01T09:02:48.002Z,540
2016-05-01T09:03:19.877Z,540
2016-05-01T09:04:57.742Z,545
2016-05-01T09:05:10.273Z,540
2016-05-01T09:06:10.167Z,540
2016-05-01T09:07:16.576Z,540
2016-05-01T09:08:10.187Z,540
2016-05-01T09:09:29.565Z,535
2016-05-01T09:10:10.489Z,535
2016-05-01T09:11:36.070Z,535
2016-05-01T09:12:10.636Z,540
2016-05-01T09:13:41.608Z,530
2016-05-01T09:14:23.235Z,530
2016-05-01T09:15:41.613Z,530
2016-05-01T09:16:10.569Z,530
2016-05-01T09:17:10.384Z,525
2016-05-01T09:18:10.543Z,520
2016-05-01T09:19:10.592Z,515
2016-05-01T09:20:16.908Z,515
2016-05-01T09:21:11.427Z,520
2016-05-01T09:22:10.366Z,520
2016-05-01T09:23:10.701Z,530
2016-05-01T09:24:10.517Z,535
2016-05-01T09:25:10.723Z,550
2016-05-01T09:26:16.834Z,560
2016-05-01T09:27:10.807Z,570
2016-05-01T09:28:10.606Z,575
2016-05-01T09:29:23.452Z,585
2016-05-01T09:30:10.909Z,585
2016-05-01T09:31:10.817Z,595
2016-05-01T09:32:11.178Z,595
2016-05-01T09:33:10.870Z,600
2016-05-01T09:34:10.747Z,605
2016-05-01T09:35:10.922Z,610
2016-05-01T09:36:10.643Z,615
2016-05-01T09:37:10.803Z,615
2016-05-01T09:38:10.992Z,615
2016-05-01T09:39:11.058Z,610
2016-05-01T09:40:11.075Z,610
2016-05-01T09:41:11.047Z,605
2016-05-01T09:42:10.924Z,605
2016-05-01T09:43:11.100Z,605
2016-05-01T09:44:11.134Z,605
2016-05-01T09:45:10.839Z,600
2016-05-01T09:46:11.045Z,595
2016-05-01T09:47:11.047Z,590
2016-05-01T09:48:11.207Z,585
2016-05-01T09:49:10.913Z,580
2016-05-01T09:50:11.243Z,580
2016-05-01T09:51:11.605Z,575
2016-05-01T09:52:11.139Z,570
2016-05-01T09:53:11.377Z,570
2016-05-01T09:54:11.348Z,565
2016-05-01T09:55:11.818Z,560
2016-05-01T09:56:11.947Z,555
2016-05-01T09:57:11.371Z,550
2016-05-01T09:58:11.279Z,540
2016-05-01T09:59:11.205Z,530
2016-05-01T10:00:11.318Z,520
2016-05-01T10:01:11.648Z,515
2016-05-01T10:02:11.370Z,510
2016-05-01T10:03:11.637Z,505
2016-05-01T10:04:11.421Z,500
2016-05-01T10:05:12.143Z,500
2016-05-01T10:06:11.676Z,495
2016-05-01T10:07:11.696Z,495
2016-05-01T10:08:11.682Z,490
2016-05-01T10:09:11.716Z,490
2016-05-01T10:10:11.687Z,480
2016-05-01T10:11:11.722Z,475
2016-05-01T10:12:11.787Z,475
2016-05-01T10:13:24.680Z,470
2016-05-01T10:14:11.791Z,470
2016-05-01T10:15:11.920Z,475
2016-05-01T10:16:11.845Z,480
2016-05-01T10:17:11.831Z,485
2016-05-01T10:18:11.881Z,495
2016-05-01T10:19:11.899Z,505
2016-05-01T10:20:11.918Z,505
2016-05-01T10:21:11.858Z,515
2016-05-01T10:22:11.814Z,525
2016-05-01T10:23:11.989Z,535
2016-05-01T10:24:12.210Z,545
2016-05-01T10:25:24.791Z,545
2016-05-01T10:26:11.965Z,550
2016-05-01T10:27:12.062Z,550
2016-05-01T10:28:12.095Z,550
2016-05-01T10:29:11.988Z,550
2016-05-01T10:30:11.913Z,550
2016-05-01T10:31:12.104Z,550
2016-05-01T10:32:12.076Z,550
2016-05-01T10:33:24.796Z,550
2016-05-01T10:34:12.237Z,550
2016-05-01T10:35:12.145Z,555
2016-05-01T10:36:18.523Z,555
2016-05-01T10:37:11.978Z,555
2016-05-01T10:38:12.295Z,560
2016-05-01T10:39:12.329Z,560
2016-05-01T10:40:12.175Z,565
2016-05-01T10:41:12.411Z,560
2016-05-01T10:42:12.430Z,565
2016-05-01T10:43:12.416Z,560
2016-05-01T10:44:12.467Z,565
2016-05-01T10:45:12.314Z,560
2016-05-01T10:46:12.519Z,550
2016-05-01T10:47:12.537Z,550
2016-05-01T10:48:13.555Z,550
2016-05-01T10:49:12.574Z,550
2016-05-01T10:50:12.388Z,550
2016-05-01T10:51:12.719Z,560
2016-05-01T10:52:12.708Z,560
2016-05-01T10:53:13.241Z,565
2016-05-01T10:54:12.713Z,575
2016-05-01T10:55:12.699Z,580
2016-05-01T10:56:12.561Z,590
2016-05-01T10:57:12.767Z,595
2016-05-01T10:58:12.770Z,600
2016-05-01T10:59:12.773Z,610
2016-05-01T11:00:12.806Z,610
2016-05-01T11:01:12.918Z,620
2016-05-01T11:02:12.874Z,620
2016-05-01T11:03:12.940Z,625
2016-05-01T11:04:12.754Z,630
2016-05-01T11:05:12.929Z,630
2016-05-01T11:06:12.776Z,635
2016-05-01T11:07:12.840Z,640
2016-05-01T11:08:12.984Z,640
2016-05-01T11:09:13.003Z,645
2016-05-01T11:10:13.067Z,650
2016-05-01T11:11:13.055Z,655
2016-05-01T11:12:25.886Z,655
2016-05-01T11:13:12.967Z,655
2016-05-01T11:14:13.188Z,655
2016-05-01T11:15:13.159Z,655
2016-05-01T11:16:13.178Z,655
2016-05-01T11:17:13.055Z,650
2016-05-01T11:18:13.277Z,655
2016-05-01T11:19:13.248Z,645
2016-05-01T11:20:13.486Z,645
2016-05-01T11:21:13.269Z,645
2016-05-01T11:22:13.319Z,645
2016-05-01T11:23:13.384Z,640
2016-05-01T11:24:13.402Z,635
2016-05-01T11:25:14.030Z,640
2016-05-01T11:26:13.455Z,625
2016-05-01T11:27:13.519Z,625
2016-05-01T11:28:13.460Z,615
2016-05-01T11:29:13.369Z,610
2016-05-01T11:30:13.372Z,600
2016-05-01T11:31:14.140Z,590
2016-05-01T11:32:13.408Z,585
2016-05-01T11:33:13.582Z,570
2016-05-01T11:34:13.460Z,565
2016-05-01T11:35:27.838Z,560
2016-05-01T11:36:13.623Z,535
2016-05-01T11:38:04.159Z,525
2016-05-01T11:38:16.862Z,520
2016-05-01T11:40:13.851Z,500
2016-05-01T11:40:26.523Z,500
2016-05-01T11:41:52.357Z,485
2016-05-01T11:42:39.310Z,480
2016-05-01T11:43:26.453Z,470
2016-05-01T11:44:26.440Z,465
2016-05-01T11:45:27.161Z,450
2016-05-01T11:46:26.680Z,440
2016-05-01T11:47:39.448Z,420
2016-05-01T11:48:26.748Z,410
2016-05-01T11:49:52.426Z,395
2016-05-01T11:50:39.207Z,380
2016-05-01T11:51:26.803Z,370
2016-05-01T11:52:26.821Z,360
2016-05-01T11:53:33.106Z,350
2016-05-01T11:54:26.936Z,345
2016-05-01T11:55:26.892Z,340
2016-05-01T11:56:26.894Z,335
2016-05-01T11:57:26.741Z,335
2016-05-01T11:58:27.057Z,330
2016-05-01T11:59:39.715Z,330
2016-05-01T12:00:26.983Z,320
2016-05-01T12:01:27.018Z,320
2016-05-01T12:02:27.004Z,320
2016-05-01T12:03:26.866Z,315
2016-05-01T12:04:27.073Z,310
2016-05-01T12:05:26.825Z,305
2016-05-01T12:06:27.109Z,310
2016-05-01T12:07:27.111Z,310
2016-05-01T12:08:27.146Z,305
2016-05-01T12:09:39.930Z,290
2016-05-01T12:10:27.042Z,285
2016-05-01T12:11:39.967Z,280
2016-05-01T12:12:27.250Z,275
2016-05-01T12:13:27.253Z,275
2016-05-01T12:14:27.287Z,270
2016-05-01T12:15:27.148Z,270
2016-05-01T12:16:27.183Z,260
2016-05-01T12:17:27.966Z,255
2016-05-01T12:18:33.500Z,255
2016-05-01T12:19:27.394Z,255
2016-05-01T12:20:28.100Z,255
2016-05-01T12:21:27.431Z,250
2016-05-01T12:22:40.106Z,250
2016-05-01T12:23:40.202Z,250
2016-05-01T12:24:46.797Z,250
2016-05-01T12:25:27.519Z,250
2016-05-01T12:26:27.382Z,250
2016-05-01T12:27:40.150Z,245
2016-05-01T12:28:33.855Z,245
2016-05-01T12:29:27.280Z,245
2016-05-01T12:30:27.642Z,245
2016-05-01T12:31:27.692Z,245
2016-05-01T12:32:27.679Z,245
2016-05-01T12:33:27.541Z,245
2016-05-01T12:34:27.544Z,245
2016-05-01T12:35:27.827Z,240
2016-05-01T12:36:27.768Z,240
2016-05-01T12:37:27.786Z,240
2016-05-01T12:38:40.523Z,240
2016-05-01T12:39:27.792Z,240
2016-05-01T12:40:27.670Z,240
2016-05-01T12:41:34.125Z,240
2016-05-01T12:42:28.300Z,240
2016-05-01T12:43:47.178Z,240
2016-05-01T12:44:28.133Z,240
2016-05-01T12:46:31.403Z,240
2016-05-01T12:47:43.906Z,240
2016-05-01T12:48:32.692Z,240
2016-05-01T12:50:28.353Z,240
2016-05-01T12:51:06.824Z,240
2016-05-01T12:52:00.233Z,240
2016-05-01T12:54:43.660Z,240
2016-05-01T12:54:56.163Z,240
2016-05-01T12:55:56.494Z,240
2016-05-01T12:57:02.497Z,240
2016-05-01T12:57:56.093Z,240
2016-05-01T12:59:09.157Z,240
2016-05-01T12:59:56.426Z,240
2016-05-01T13:01:09.179Z,240
2016-05-01T13:01:56.900Z,240
2016-05-01T13:03:53.452Z,240
2016-05-01T13:04:05.827Z,240
2016-05-01T13:05:25.112Z,240
2016-05-01T13:06:12.130Z,240
2016-05-01T13:07:05.867Z,240
2016-05-01T13:08:18.807Z,240
2016-05-01T13:09:18.653Z,240
2016-05-01T13:10:06.140Z,240
2016-05-01T13:11:25.174Z,240
2016-05-01T13:12:06.084Z,240
2016-05-01T13:13:06.117Z,240
2016-05-01T13:14:12.432Z,240
2016-05-01T13:15:06.044Z,245
2016-05-01T13:16:25.484Z,250
2016-05-01T13:17:06.394Z,250
2016-05-01T13:18:31.928Z,245
2016-05-01T13:19:06.320Z,245
2016-05-01T13:21:02.983Z,245
2016-05-01T13:21:16.873Z,245
2016-05-01T13:22:41.594Z,240
2016-05-01T13:23:15.566Z,240
2016-05-01T13:25:12.541Z,240
2016-05-01T13:25:25.056Z,240
2016-05-01T13:27:27.858Z,240
2016-05-01T13:27:59.594Z,240
2016-05-01T13:28:53.173Z,240
2016-05-01T13:30:06.257Z,240
2016-05-01T13:32:59.921Z,240
2016-05-01T13:33:31.671Z,240
2016-05-01T13:34:25.096Z,240
2016-05-01T13:35:44.036Z,245
2016-05-01T13:36:25.274Z,245
2016-05-01T13:37:13.087Z,245
2016-05-01T13:38:31.951Z,245
2016-05-01T13:39:13.421Z,245
2016-05-01T13:40:12.612Z,245
2016-05-01T13:41:13.145Z,250
2016-05-01T13:42:12.977Z,255
2016-05-01T13:43:12.823Z,250
2016-05-01T13:44:25.575Z,250
2016-05-01T13:45:25.437Z,255
2016-05-01T13:46:38.409Z,260
2016-05-01T13:47:31.943Z,245
2016-05-01T13:48:13.181Z,245
2016-05-01T13:50:09.748Z,245
2016-05-01T13:51:19.267Z,245
2016-05-01T13:52:16.675Z,240
2016-05-01T13:52:51.175Z,230
2016-05-01T13:53:32.084Z,230
2016-05-01T13:54:31.853Z,240
2016-05-01T13:55:32.042Z,250
2016-05-01T13:56:44.795Z,250
2016-05-01T13:57:38.329Z,250
2016-05-01T13:58:32.082Z,250
2016-05-01T13:59:44.835Z,250
2016-05-01T14:00:31.978Z,255
2016-05-01T14:01:51.419Z,255
2016-05-01T14:02:32.327Z,255
2016-05-01T14:03:32.189Z,255
2016-05-01T14:04:32.583Z,255
2016-05-01T14:05:44.694Z,255
2016-05-01T14:06:32.369Z,255
2016-05-01T14:07:32.325Z,250
2016-05-01T14:08:32.234Z,245
2016-05-01T14:09:32.002Z,245
2016-05-01T14:10:32.426Z,245
2016-05-01T14:11:32.383Z,250
2016-05-01T14:12:38.479Z,250
2016-05-01T14:13:32.372Z,245
2016-05-01T14:14:32.468Z,245
2016-05-01T14:15:32.503Z,245
2016-05-01T14:16:32.537Z,245
2016-05-01T14:17:38.774Z,245
2016-05-01T14:18:32.214Z,245
2016-05-01T14:19:45.264Z,245
2016-05-01T14:20:32.954Z,245
2016-05-01T14:21:32.612Z,245
2016-05-01T14:22:45.412Z,245
2016-05-01T14:23:32.462Z,245
2016-05-01T14:24:45.527Z,245
2016-05-01T14:25:33.920Z,245